Time;durP1;ratioP1;P1;durP2;ratioP2;P2;SDS_P1;SDS_P2;PMS_P1;PMS_P2;Temp;Humidity;BMP_temperature;BMP_pressure;BME280_temperature;BME280_humidity;BME280_pressure;Samples;Min_cycle;Max_cycle;Signal;HPM_P1;HPM_P2
2023/04/24 04:00:14;;;;;;;1.30;1.10;;;11.00;99.90;;;;;;6085216;23;21911;31
2023/04/24 04:02:42;;;;;;;0.50;0.50;;;11.00;99.90;;;;;;4957880;28;20462;-73
2023/04/24 04:05:09;;;;;;;0.47;0.38;;;10.90;99.90;;;;;;4960339;28;20589;-73
2023/04/24 04:07:35;;;;;;;0.40;0.40;;;10.90;99.90;;;;;;4960521;28;20209;-73
2023/04/24 04:10:03;;;;;;;0.55;0.55;;;10.90;99.90;;;;;;4960468;29;20233;-73
2023/04/24 04:12:29;;;;;;;4.50;0.65;;;10.90;99.90;;;;;;4958807;29;20376;-73
2023/04/24 04:14:56;;;;;;;0.40;0.40;;;10.90;99.90;;;;;;4986795;23;20216;-72
2023/04/24 04:17:23;;;;;;;0.25;0.25;;;10.80;99.90;;;;;;5013411;28;20219;-72
2023/04/24 04:19:51;;;;;;;0.68;0.68;;;10.80;99.90;;;;;;5014188;28;20566;-72
2023/04/24 04:22:18;;;;;;;2.35;1.73;;;10.80;99.90;;;;;;5013245;28;20261;-72
2023/04/24 04:24:46;;;;;;;0.50;0.50;;;10.80;99.90;;;;;;5013592;28;20218;-72
2023/04/24 04:27:12;;;;;;;0.40;0.40;;;10.80;99.90;;;;;;5013914;28;20223;-72
2023/04/24 04:29:39;;;;;;;0.20;0.20;;;10.70;99.90;;;;;;5013202;28;20223;-72
2023/04/24 04:32:06;;;;;;;0.85;0.85;;;10.70;99.90;;;;;;5013211;28;20254;-72
2023/04/24 04:34:33;;;;;;;0.82;0.82;;;10.70;99.90;;;;;;5013055;28;20203;-73
2023/04/24 04:37:02;;;;;;;0.30;0.30;;;10.70;99.90;;;;;;5013131;28;20227;-72
2023/04/24 04:39:29;;;;;;;0.90;0.90;;;10.70;99.90;;;;;;5013764;28;20676;-73
2023/04/24 04:41:56;;;;;;;1.15;1.02;;;10.80;99.90;;;;;;5013465;28;20206;-72
2023/04/24 04:44:23;;;;;;;0.60;0.60;;;11.00;99.90;;;;;;5013146;28;20328;-72
2023/04/24 04:46:53;;;;;;;0.50;0.50;;;11.30;99.90;;;;;;5013529;28;20235;-72
2023/04/24 04:49:21;;;;;;;0.68;0.60;;;11.30;99.90;;;;;;5013680;28;20207;-73
2023/04/24 04:51:48;;;;;;;0.30;0.30;;;11.30;99.90;;;;;;5013089;28;20235;-72
2023/04/24 04:54:16;;;;;;;0.25;0.25;;;11.20;99.90;;;;;;5012648;28;20243;-71
2023/04/24 04:56:43;;;;;;;0.52;0.52;;;11.30;99.90;;;;;;5013205;28;20233;-71
2023/04/24 04:59:10;;;;;;;0.55;0.55;;;11.50;99.90;;;;;;5013218;28;20576;-72
2023/04/24 05:01:37;;;;;;;0.30;0.30;;;11.70;99.90;;;;;;5013579;28;20213;-72
2023/04/24 05:04:04;;;;;;;0.20;0.20;;;11.70;99.90;;;;;;5012631;28;20214;-73
2023/04/24 05:06:31;;;;;;;0.77;0.77;;;11.70;99.90;;;;;;5012215;28;20231;-72
2023/04/24 05:08:57;;;;;;;0.52;0.52;;;11.60;99.90;;;;;;5013173;28;20211;-71
2023/04/24 05:11:26;;;;;;;0.30;0.30;;;11.70;99.90;;;;;;5012894;28;20223;-72
2023/04/24 05:13:52;;;;;;;0.50;0.50;;;11.70;99.90;;;;;;5012588;28;20286;-73
2023/04/24 05:16:19;;;;;;;0.52;0.52;;;11.80;99.90;;;;;;5012704;28;20684;-72
2023/04/24 05:18:46;;;;;;;0.73;0.47;;;11.80;99.90;;;;;;5012833;28;20203;-72
2023/04/24 05:21:12;;;;;;;0.35;0.35;;;11.90;99.90;;;;;;5012024;28;20215;-73
2023/04/24 05:23:39;;;;;;;0.50;0.50;;;12.00;99.90;;;;;;5012103;28;20668;-71
2023/04/24 05:26:06;;;;;;;1.58;0.60;;;12.00;99.90;;;;;;5012076;28;20605;-73
2023/04/24 05:28:36;;;;;;;0.60;0.60;;;12.00;99.90;;;;;;5012424;28;20655;-72
2023/04/24 05:31:03;;;;;;;0.73;0.55;;;12.00;99.90;;;;;;5012436;28;20493;-72
2023/04/24 05:33:29;;;;;;;1.00;1.00;;;11.90;99.90;;;;;;5012043;28;20668;-72
2023/04/24 05:35:56;;;;;;;1.02;1.02;;;11.90;99.90;;;;;;5012208;28;20227;-71
2023/04/24 05:38:23;;;;;;;0.67;0.67;;;12.00;99.90;;;;;;5013040;28;20229;-71
2023/04/24 05:40:50;;;;;;;0.43;0.43;;;12.00;99.90;;;;;;5012955;28;20473;-71
2023/04/24 05:43:16;;;;;;;4.30;0.93;;;12.10;99.90;;;;;;5012785;28;20580;-72
2023/04/24 05:45:44;;;;;;;0.30;0.30;;;12.10;99.90;;;;;;5012770;28;20488;-72
2023/04/24 05:48:11;;;;;;;0.85;0.55;;;12.10;99.90;;;;;;5012507;28;20199;-72
2023/04/24 05:50:38;;;;;;;0.47;0.47;;;12.10;99.90;;;;;;5012229;28;20227;-72
2023/04/24 05:53:06;;;;;;;0.53;0.53;;;12.10;99.90;;;;;;5011563;28;20496;-72
2023/04/24 05:55:33;;;;;;;0.30;0.30;;;12.20;99.90;;;;;;5011909;28;20486;-72
2023/04/24 05:58:00;;;;;;;1.07;0.60;;;12.20;99.90;;;;;;5012452;28;20214;-72
2023/04/24 06:00:28;;;;;;;1.20;0.30;;;12.20;99.90;;;;;;5012037;28;20462;-73
2023/04/24 06:02:56;;;;;;;0.45;0.45;;;12.20;99.90;;;;;;5012031;28;20470;-73
2023/04/24 06:05:23;;;;;;;0.47;0.47;;;12.10;99.90;;;;;;5011690;28;20270;-73
2023/04/24 06:07:50;;;;;;;0.60;0.60;;;12.20;99.90;;;;;;5010869;28;20511;-73
2023/04/24 06:10:16;;;;;;;0.83;0.83;;;12.50;99.90;;;;;;5011652;28;20492;-71
2023/04/24 06:12:43;;;;;;;0.70;0.70;;;13.20;99.90;;;;;;5011570;28;20559;-71
2023/04/24 06:15:11;;;;;;;0.80;0.80;;;14.00;99.90;;;;;;5011456;28;20470;-72
2023/04/24 06:17:38;;;;;;;0.40;0.40;;;14.60;99.90;;;;;;5010822;28;20881;-71
2023/04/24 06:20:08;;;;;;;0.40;0.40;;;15.40;99.90;;;;;;5011295;28;20470;-71
2023/04/24 06:22:35;;;;;;;0.30;0.30;;;15.90;99.90;;;;;;5010679;28;20466;-71
2023/04/24 06:25:02;;;;;;;0.50;0.50;;;16.20;99.90;;;;;;5010957;28;20461;-71
2023/04/24 06:27:29;;;;;;;0.40;0.40;;;16.10;99.90;;;;;;5011296;28;20481;-71
2023/04/24 06:29:55;;;;;;;0.80;0.80;;;16.30;99.90;;;;;;5011135;28;20476;-71
2023/04/24 06:32:23;;;;;;;0.30;0.30;;;16.60;99.90;;;;;;5011124;28;20821;-72
2023/04/24 06:34:53;;;;;;;0.30;0.30;;;17.00;99.90;;;;;;5011122;28;20911;-72
2023/04/24 06:37:21;;;;;;;0.47;0.47;;;17.60;99.90;;;;;;5010856;28;20462;-71
2023/04/24 06:39:48;;;;;;;0.20;0.20;;;17.80;99.90;;;;;;5012228;28;20470;-72
2023/04/24 06:42:15;;;;;;;4.83;0.37;;;18.30;99.90;;;;;;5011922;28;20453;-71
2023/04/24 06:44:42;;;;;;;0.40;0.40;;;18.40;99.90;;;;;;5010650;28;20461;-72
2023/04/24 06:47:09;;;;;;;0.47;0.47;;;18.60;99.90;;;;;;5010994;28;20901;-72
2023/04/24 06:49:36;;;;;;;1.07;0.50;;;18.90;99.90;;;;;;5011131;28;20471;-72
2023/04/24 06:52:03;;;;;;;0.60;0.60;;;18.30;99.90;;;;;;5010550;28;20567;-72
2023/04/24 06:54:32;;;;;;;0.37;0.37;;;18.10;99.90;;;;;;5010735;28;20462;-72
2023/04/24 06:57:00;;;;;;;0.27;0.27;;;18.20;99.90;;;;;;5011011;28;21023;-72
2023/04/24 06:59:27;;;;;;;0.40;0.40;;;18.60;99.90;;;;;;5011380;28;20475;-72
2023/04/24 07:01:54;;;;;;;0.40;0.40;;;18.80;99.90;;;;;;5011554;28;20461;-71
2023/04/24 07:04:20;;;;;;;0.87;0.50;;;19.00;99.90;;;;;;5011406;28;20856;-71
2023/04/24 07:06:47;;;;;;;0.30;0.30;;;18.70;99.90;;;;;;5010618;28;20568;-71
2023/04/24 07:09:15;;;;;;;0.30;0.30;;;18.60;99.90;;;;;;5011305;28;20463;-71
2023/04/24 07:11:44;;;;;;;0.30;0.30;;;18.30;99.90;;;;;;5010728;28;20610;-71
2023/04/24 07:14:11;;;;;;;0.20;0.20;;;17.80;99.90;;;;;;5010533;28;20469;-71
2023/04/24 07:16:38;;;;;;;0.37;0.37;;;17.20;99.90;;;;;;5010722;28;20516;-71
2023/04/24 07:19:05;;;;;;;0.40;0.40;;;16.90;99.90;;;;;;5011130;28;20498;-71
2023/04/24 07:21:32;;;;;;;0.40;0.40;;;17.10;99.90;;;;;;5009857;28;20464;-71
2023/04/24 07:23:58;;;;;;;0.30;0.30;;;17.50;99.90;;;;;;5010486;28;20560;-72
2023/04/24 07:26:26;;;;;;;1.43;0.40;;;18.00;99.90;;;;;;5010410;28;20492;-71
2023/04/24 07:28:54;;;;;;;0.20;0.20;;;17.90;99.90;;;;;;5009746;28;20466;-71
2023/04/24 07:31:21;;;;;;;0.20;0.20;;;17.90;99.90;;;;;;5009984;28;20521;-72
2023/04/24 07:33:48;;;;;;;1.13;0.57;;;17.50;99.90;;;;;;5009933;28;20462;-71
2023/04/24 07:36:18;;;;;;;0.77;0.77;;;17.00;99.90;;;;;;5009425;28;20513;-71
2023/04/24 07:38:45;;;;;;;0.40;0.40;;;16.50;99.90;;;;;;5010366;28;20510;-72
2023/04/24 07:41:12;;;;;;;0.50;0.50;;;16.10;99.90;;;;;;5010366;28;20469;-71
2023/04/24 07:43:39;;;;;;;0.47;0.47;;;16.10;99.90;;;;;;5009866;28;20461;-71
2023/04/24 07:46:07;;;;;;;0.50;0.50;;;15.90;99.90;;;;;;5010303;28;20485;-72
2023/04/24 07:48:34;;;;;;;0.47;0.47;;;15.80;99.90;;;;;;5010344;28;20462;-71
2023/04/24 07:51:01;;;;;;;0.33;0.33;;;15.70;99.90;;;;;;5009743;28;20554;-71
2023/04/24 07:53:27;;;;;;;0.40;0.40;;;15.60;99.90;;;;;;5009869;28;20466;-72
2023/04/24 07:55:55;;;;;;;0.30;0.30;;;15.60;99.90;;;;;;5010150;28;20573;-72
2023/04/24 07:58:22;;;;;;;0.33;0.33;;;15.50;99.90;;;;;;5010938;28;20520;-72
2023/04/24 08:00:49;;;;;;;1.13;0.40;;;15.50;99.90;;;;;;5010144;28;20480;-71
2023/04/24 08:03:19;;;;;;;0.30;0.30;;;15.50;99.90;;;;;;5010284;28;20462;-72
2023/04/24 08:05:46;;;;;;;0.77;0.50;;;15.50;99.90;;;;;;5010673;28;20482;-72
2023/04/24 08:08:13;;;;;;;0.70;0.70;;;15.40;99.90;;;;;;5010142;28;20758;-72
2023/04/24 08:10:40;;;;;;;0.40;0.40;;;15.40;99.90;;;;;;5010157;28;20468;-72
2023/04/24 08:13:06;;;;;;;0.40;0.40;;;15.30;99.90;;;;;;5010225;28;20473;-71
2023/04/24 08:15:33;;;;;;;0.50;0.50;;;15.30;99.90;;;;;;5009137;28;20498;-71
2023/04/24 08:18:00;;;;;;;0.47;0.47;;;15.30;99.90;;;;;;5009832;28;20950;-71
2023/04/24 08:20:28;;;;;;;0.63;0.63;;;15.20;99.90;;;;;;5009868;28;20898;-71
2023/04/24 08:22:56;;;;;;;2.00;0.33;;;15.20;99.90;;;;;;5008948;28;20462;-71
2023/04/24 08:25:24;;;;;;;0.87;0.87;;;15.20;99.90;;;;;;5008927;28;20569;-71
2023/04/24 08:27:51;;;;;;;1.07;0.60;;;15.30;99.90;;;;;;5009273;28;20466;-71
2023/04/24 08:30:18;;;;;;;0.60;0.60;;;15.30;99.90;;;;;;5009634;28;20468;-71
2023/04/24 08:32:45;;;;;;;11.13;0.70;;;15.40;99.90;;;;;;5009534;28;20496;-71
2023/04/24 08:35:12;;;;;;;0.50;0.50;;;15.50;99.90;;;;;;5009128;28;20504;-71
2023/04/24 08:37:40;;;;;;;0.87;0.87;;;15.40;99.90;;;;;;5008883;28;20555;-71
2023/04/24 08:40:12;;;;;;;0.50;0.50;;;15.50;99.90;;;;;;5010318;28;20472;-72
2023/04/24 08:42:40;;;;;;;1.17;1.17;;;15.30;99.90;;;;;;5014276;28;20473;-72
2023/04/24 08:45:08;;;;;;;0.67;0.67;;;15.30;99.90;;;;;;5012543;28;20472;-72
2023/04/24 08:47:36;;;;;;;0.63;0.63;;;15.30;99.90;;;;;;5013223;28;20469;-72
2023/04/24 08:50:05;;;;;;;0.70;0.70;;;15.20;99.90;;;;;;5013336;28;20462;-72
2023/04/24 08:52:33;;;;;;;0.90;0.90;;;15.20;99.90;;;;;;5012757;28;20486;-72
2023/04/24 08:55:02;;;;;;;1.83;1.10;;;15.20;99.90;;;;;;5012592;28;20466;-72
2023/04/24 08:57:30;;;;;;;1.10;1.10;;;15.20;99.90;;;;;;5013113;28;20462;-72
2023/04/24 08:59:58;;;;;;;0.53;0.53;;;15.30;99.90;;;;;;5012817;28;20854;-71
2023/04/24 09:02:26;;;;;;;0.57;0.57;;;15.50;99.90;;;;;;5012625;28;20485;-71
2023/04/24 09:04:54;;;;;;;1.50;1.40;;;15.60;99.90;;;;;;5011707;28;20477;-71
2023/04/24 09:07:23;;;;;;;0.83;0.83;;;15.60;99.90;;;;;;5011737;28;20935;-72
2023/04/24 09:09:52;;;;;;;1.40;1.40;;;15.70;99.90;;;;;;5012526;28;20462;-72
2023/04/24 09:12:20;;;;;;;1.40;1.40;;;15.70;99.90;;;;;;5012415;28;20496;-71
2023/04/24 09:14:47;;;;;;;1.27;1.27;;;15.40;99.90;;;;;;5012126;28;20488;-72
2023/04/24 09:17:13;;;;;;;1.73;1.70;;;15.20;99.90;;;;;;5012190;28;20573;-71
2023/04/24 09:19:41;;;;;;;1.70;1.60;;;15.10;99.90;;;;;;5012887;28;20462;-72
2023/04/24 09:22:08;;;;;;;3.93;1.70;;;15.10;99.90;;;;;;5012366;28;20462;-72
2023/04/24 09:24:36;;;;;;;3.70;2.70;;;15.00;99.90;;;;;;5012274;28;20465;-72
2023/04/24 09:27:03;;;;;;;1.80;1.70;;;15.10;99.90;;;;;;5012634;28;20482;-72
2023/04/24 09:29:32;;;;;;;2.43;2.17;;;15.00;99.90;;;;;;5012073;28;20470;-72
2023/04/24 09:31:59;;;;;;;1.57;1.57;;;14.90;99.90;;;;;;5012203;28;20482;-71
2023/04/24 09:34:27;;;;;;;1.47;1.47;;;14.90;99.90;;;;;;5011979;28;20474;-71
2023/04/24 09:36:55;;;;;;;3.90;2.07;;;14.90;99.90;;;;;;5011307;28;20481;-72
2023/04/24 09:39:22;;;;;;;2.10;2.00;;;15.00;99.90;;;;;;5012175;28;21017;-72
2023/04/24 09:41:50;;;;;;;1.10;1.10;;;15.10;99.90;;;;;;5012327;28;20463;-72
2023/04/24 09:44:19;;;;;;;2.17;2.07;;;15.20;99.90;;;;;;5011958;28;20470;-72
2023/04/24 09:46:52;;;;;;;1.60;1.60;;;15.10;99.90;;;;;;5011545;28;20851;-72
2023/04/24 09:49:24;;;;;;;2.07;1.97;;;15.10;99.90;;;;;;5011940;28;20469;-72
2023/04/24 09:51:51;;;;;;;1.67;1.57;;;15.10;99.90;;;;;;5010951;28;20519;-72
2023/04/24 09:54:20;;;;;;;1.70;1.70;;;15.10;99.90;;;;;;5011054;28;20477;-71
2023/04/24 09:56:48;;;;;;;2.13;1.93;;;15.10;99.90;;;;;;5010980;28;21028;-71
2023/04/24 09:59:16;;;;;;;1.93;1.83;;;15.10;99.90;;;;;;5011894;28;20557;-71
2023/04/24 10:01:44;;;;;;;2.00;1.80;;;15.00;99.90;;;;;;5011786;28;20804;-71
2023/04/24 10:04:20;;;;;;;2.23;2.13;;;14.90;99.90;;;;;;5011081;28;20462;-72
2023/04/24 10:06:48;;;;;;;1.20;1.20;;;15.10;99.90;;;;;;5010832;28;20567;-72
2023/04/24 10:09:15;;;;;;;2.63;2.50;;;15.30;99.90;;;;;;5011463;28;20497;-72
2023/04/24 10:11:44;;;;;;;1.57;1.57;;;15.30;99.90;;;;;;5011165;28;20486;-73
2023/04/24 10:14:14;;;;;;;2.33;2.23;;;15.40;99.90;;;;;;5011141;28;20498;-72
2023/04/24 10:16:41;;;;;;;1.47;1.47;;;15.30;99.90;;;;;;5011950;28;20513;-72
2023/04/24 10:19:08;;;;;;;2.50;2.40;;;15.20;99.90;;;;;;5011679;28;20462;-73
2023/04/24 10:21:37;;;;;;;1.90;1.80;;;15.30;99.90;;;;;;5010822;28;20465;-72
2023/04/24 10:24:07;;;;;;;1.67;1.57;;;15.40;99.90;;;;;;5011132;28;20548;-72
2023/04/24 10:26:34;;;;;;;1.60;1.53;;;15.50;99.90;;;;;;5011355;28;20482;-74
2023/04/24 10:29:02;;;;;;;2.93;2.57;;;15.40;99.90;;;;;;5010916;28;20469;-72
2023/04/24 10:31:32;;;;;;;2.00;1.80;;;15.40;99.90;;;;;;5010919;28;20464;-73
2023/04/24 10:34:00;;;;;;;5.60;1.73;;;15.30;99.90;;;;;;5010551;28;20476;-73
2023/04/24 10:36:32;;;;;;;2.90;2.67;;;15.30;99.90;;;;;;5010315;28;20599;-73
2023/04/24 10:39:03;;;;;;;2.50;2.30;;;15.50;99.90;;;;;;5011661;28;20874;-72
2023/04/24 10:41:31;;;;;;;4.30;2.47;;;15.60;99.90;;;;;;5012118;28;20466;-74
2023/04/24 10:44:08;;;;;;;2.60;2.50;;;15.60;99.90;;;;;;5011330;28;20458;-73
2023/04/24 10:46:35;;;;;;;2.23;2.03;;;15.50;99.90;;;;;;5011632;28;20552;-73
2023/04/24 10:49:06;;;;;;;1.40;1.40;;;15.40;99.90;;;;;;5013408;28;20488;-73
2023/04/24 10:51:49;;;;;;;1.97;1.90;;;15.40;99.90;;;;;;5011171;28;20466;-74
2023/04/24 10:54:28;;;;;;;2.17;2.07;;;15.40;99.90;;;;;;5009693;28;20982;-74
2023/04/24 10:57:28;;;;;;;2.67;2.47;;;15.30;99.90;;;;;;5012123;28;20492;-74
2023/04/24 11:00:15;;;;;;;2.10;2.00;;;15.30;99.90;;;;;;5012086;28;20469;-73
2023/04/24 11:02:48;;;;;;;5.57;1.73;;;15.40;99.90;;;;;;5010596;28;20475;-72
2023/04/24 11:05:16;;;;;;;1.60;1.50;;;15.60;99.90;;;;;;5010556;28;20481;-75
2023/04/24 11:08:11;;;;;;;2.37;2.27;;;15.60;99.90;;;;;;5010366;28;20504;-73
2023/04/24 11:10:45;;;;;;;1.87;1.70;;;15.50;99.90;;;;;;5011388;28;20561;-66
2023/04/24 11:13:14;;;;;;;2.30;2.13;;;15.40;99.90;;;;;;5010996;28;20698;-67
2023/04/24 11:15:43;;;;;;;2.03;1.93;;;15.30;99.90;;;;;;5010458;28;20490;-68
2023/04/24 11:18:14;;;;;;;2.60;2.23;;;15.20;99.90;;;;;;5010597;28;20955;-70
2023/04/24 11:20:43;;;;;;;2.20;2.10;;;15.10;99.90;;;;;;5011028;28;20466;-67
2023/04/24 11:23:12;;;;;;;2.47;2.37;;;15.20;99.90;;;;;;5010955;28;20461;-65
2023/04/24 11:25:42;;;;;;;1.30;1.30;;;15.20;99.90;;;;;;5011029;28;20493;-67
2023/04/24 11:28:15;;;;;;;1.90;1.83;;;15.30;99.90;;;;;;5011578;28;20472;-67
2023/04/24 11:30:42;;;;;;;1.80;1.80;;;15.40;99.90;;;;;;5010842;28;20458;-67
2023/04/24 11:33:09;;;;;;;1.70;1.60;;;15.60;99.90;;;;;;5010297;28;20486;-67
2023/04/24 11:35:41;;;;;;;1.13;1.13;;;15.80;99.90;;;;;;5010398;28;20485;-68
2023/04/24 11:38:08;;;;;;;1.30;1.30;;;15.80;99.90;;;;;;5010098;28;20581;-68
2023/04/24 11:40:35;;;;;;;2.67;0.93;;;15.70;99.90;;;;;;5010768;28;20914;-68
2023/04/24 11:43:05;;;;;;;1.03;1.03;;;15.80;99.90;;;;;;5010442;28;20989;-68
2023/04/24 11:45:32;;;;;;;1.70;1.70;;;15.80;99.90;;;;;;5009745;28;20968;-68
2023/04/24 11:47:59;;;;;;;1.13;1.13;;;15.90;99.90;;;;;;5010498;28;20465;-69
2023/04/24 11:50:29;;;;;;;1.00;1.00;;;16.10;99.90;;;;;;5010596;28;20465;-72
2023/04/24 11:52:56;;;;;;;1.60;1.53;;;16.10;99.90;;;;;;5009869;28;20568;-72
2023/04/24 11:55:28;;;;;;;0.97;0.97;;;16.20;99.90;;;;;;5010276;28;20509;-69
2023/04/24 11:57:57;;;;;;;9.73;1.47;;;16.30;99.90;;;;;;5010259;28;20550;-71
2023/04/24 12:00:27;;;;;;;1.60;1.57;;;16.40;99.90;;;;;;5010379;28;20470;-72
2023/04/24 12:03:05;;;;;;;2.13;2.03;;;16.20;99.90;;;;;;5010867;28;20834;-71
2023/04/24 12:05:32;;;;;;;1.30;1.30;;;16.20;99.90;;;;;;5010029;28;20485;-73
2023/04/24 12:07:59;;;;;;;2.67;2.47;;;16.00;99.90;;;;;;5009833;28;20462;-73
2023/04/24 12:10:27;;;;;;;1.50;1.43;;;15.80;99.90;;;;;;5010458;28;20462;-74
2023/04/24 12:12:57;;;;;;;1.37;1.37;;;15.50;99.90;;;;;;5010568;28;20502;-73
2023/04/24 12:15:26;;;;;;;1.40;1.40;;;15.40;99.90;;;;;;5012379;28;20489;-74
2023/04/24 12:17:53;;;;;;;1.77;1.67;;;15.50;99.90;;;;;;5014060;28;20472;-73
2023/04/24 12:20:26;;;;;;;1.20;1.20;;;15.60;99.90;;;;;;5014249;28;20467;-73
2023/04/24 12:22:54;;;;;;;2.90;1.70;;;15.70;99.90;;;;;;5013075;28;20465;-74
2023/04/24 12:25:22;;;;;;;1.40;1.37;;;15.70;99.90;;;;;;5013626;28;20737;-73
2023/04/24 12:27:54;;;;;;;1.73;1.63;;;15.90;99.90;;;;;;5014255;28;20462;-73
2023/04/24 12:30:22;;;;;;;1.07;1.07;;;15.90;99.90;;;;;;5013937;28;20508;-72
2023/04/24 12:32:51;;;;;;;1.43;1.40;;;15.90;99.90;;;;;;5014246;28;21038;-73
2023/04/24 12:35:21;;;;;;;0.87;0.87;;;15.90;99.90;;;;;;5013602;28;20490;-73
2023/04/24 12:37:48;;;;;;;1.87;1.63;;;16.00;99.90;;;;;;5014318;28;20473;-73
2023/04/24 12:40:15;;;;;;;1.80;1.73;;;16.10;99.90;;;;;;5014354;28;20472;-73
2023/04/24 12:42:43;;;;;;;1.30;1.30;;;16.00;99.90;;;;;;5014326;28;20458;-72
2023/04/24 12:45:12;;;;;;;2.10;2.07;;;15.90;99.90;;;;;;5013913;28;20918;-73
2023/04/24 12:47:39;;;;;;;1.00;1.00;;;15.80;99.90;;;;;;5014918;28;20458;-73
2023/04/24 12:50:10;;;;;;;1.03;1.00;;;15.90;99.90;;;;;;5014052;28;20564;-73
2023/04/24 12:52:37;;;;;;;1.53;1.53;;;15.90;99.90;;;;;;5013537;28;20592;-73
2023/04/24 12:55:07;;;;;;;1.70;1.60;;;15.90;99.90;;;;;;5014667;28;20568;-73
2023/04/24 12:57:35;;;;;;;0.90;0.90;;;15.70;99.90;;;;;;5013650;28;21053;-73
2023/04/24 13:00:02;;;;;;;0.70;0.70;;;15.30;99.90;;;;;;5013426;28;20469;-73
2023/04/24 13:02:30;;;;;;;1.57;1.47;;;15.10;99.90;;;;;;5013260;28;20509;-73
2023/04/24 13:04:57;;;;;;;0.80;0.80;;;14.80;99.90;;;;;;5012722;28;20979;-73
2023/04/24 13:07:26;;;;;;;1.40;1.37;;;14.80;99.90;;;;;;5012949;28;20485;-73
2023/04/24 13:09:53;;;;;;;1.10;1.10;;;14.60;99.90;;;;;;5013596;28;20496;-73
2023/04/24 13:12:21;;;;;;;1.00;1.00;;;14.50;99.90;;;;;;5013354;28;20462;-74
2023/04/24 13:14:48;;;;;;;0.87;0.87;;;14.50;99.90;;;;;;5012539;28;20934;-73
2023/04/24 13:17:15;;;;;;;1.10;1.10;;;14.50;99.90;;;;;;5012848;28;20515;-74
2023/04/24 13:19:43;;;;;;;1.10;1.10;;;14.50;99.90;;;;;;5013111;28;20466;-74
2023/04/24 13:22:11;;;;;;;0.80;0.80;;;14.60;99.90;;;;;;5012626;28;20473;-73
2023/04/24 13:24:41;;;;;;;0.80;0.80;;;14.40;99.90;;;;;;5012415;28;20457;-74
2023/04/24 13:27:08;;;;;;;1.03;1.03;;;14.30;99.90;;;;;;5011908;28;20568;-74
2023/04/24 13:29:35;;;;;;;1.80;1.70;;;14.20;99.90;;;;;;5012230;28;20943;-74
2023/04/24 13:32:02;;;;;;;1.20;1.20;;;14.20;99.90;;;;;;5012545;28;20462;-73
2023/04/24 13:34:29;;;;;;;1.00;1.00;;;14.10;99.90;;;;;;5011890;28;20486;-74
2023/04/24 13:36:58;;;;;;;1.13;1.13;;;14.20;99.90;;;;;;5011905;28;20481;-74
2023/04/24 13:39:25;;;;;;;0.73;0.73;;;14.20;99.90;;;;;;5012629;28;20462;-74
2023/04/24 13:41:53;;;;;;;1.00;1.00;;;14.30;99.90;;;;;;5012464;28;20552;-73
2023/04/24 13:44:22;;;;;;;2.20;1.00;;;14.50;99.90;;;;;;5011710;28;20458;-74
2023/04/24 13:46:51;;;;;;;0.70;0.67;;;14.60;99.90;;;;;;5012098;28;20494;-73
2023/04/24 13:49:18;;;;;;;0.70;0.70;;;14.70;99.90;;;;;;5012467;28;20565;-73
2023/04/24 13:51:45;;;;;;;1.10;1.10;;;14.90;99.90;;;;;;5011976;28;20556;-74
2023/04/24 13:54:12;;;;;;;0.90;0.90;;;14.80;99.90;;;;;;5011693;28;20520;-74
2023/04/24 13:56:40;;;;;;;1.07;1.07;;;14.90;99.90;;;;;;5011844;28;20481;-74
2023/04/24 13:59:08;;;;;;;0.90;0.90;;;14.90;99.90;;;;;;5011989;28;20962;-74
2023/04/24 14:01:35;;;;;;;1.07;1.07;;;14.80;99.90;;;;;;5012083;28;20546;-74
2023/04/24 14:04:02;;;;;;;1.07;1.07;;;14.90;99.90;;;;;;5011644;28;20462;-74
2023/04/24 14:06:29;;;;;;;0.67;0.67;;;14.80;99.90;;;;;;5011445;28;20493;-73
2023/04/24 14:08:56;;;;;;;0.97;0.97;;;14.70;99.90;;;;;;5011829;28;20560;-73
2023/04/24 14:11:22;;;;;;;1.27;1.27;;;14.60;99.90;;;;;;5012162;28;20800;-73
2023/04/24 14:13:50;;;;;;;0.57;0.57;;;14.50;99.90;;;;;;5011234;28;21039;-74
2023/04/24 14:16:18;;;;;;;1.03;1.03;;;14.40;99.90;;;;;;5011417;28;20504;-73
2023/04/24 14:18:45;;;;;;;1.60;1.50;;;14.30;99.90;;;;;;5012100;28;20470;-74
2023/04/24 14:21:12;;;;;;;0.90;0.90;;;14.30;99.90;;;;;;5011452;28;20945;-73
2023/04/24 14:23:39;;;;;;;1.07;1.07;;;14.30;99.90;;;;;;5011734;28;21005;-73
2023/04/24 14:26:06;;;;;;;1.13;0.93;;;14.30;99.90;;;;;;5011561;28;20490;-74
2023/04/24 14:28:33;;;;;;;0.80;0.80;;;14.20;99.90;;;;;;5011326;28;20466;-73
2023/04/24 14:31:00;;;;;;;1.40;1.40;;;14.20;99.90;;;;;;5011446;28;20461;-73
2023/04/24 14:33:28;;;;;;;1.30;1.20;;;14.20;99.90;;;;;;5010949;28;20562;-74
2023/04/24 14:35:54;;;;;;;0.67;0.67;;;14.10;99.90;;;;;;5010678;28;20482;-74
2023/04/24 14:38:22;;;;;;;2.80;1.27;;;14.10;99.90;;;;;;5010571;28;20840;-73
2023/04/24 14:40:49;;;;;;;1.47;1.20;;;14.20;99.90;;;;;;5011288;28;20470;-73
2023/04/24 14:43:16;;;;;;;2.53;0.93;;;14.30;99.90;;;;;;5011153;28;20524;-73
2023/04/24 14:45:43;;;;;;;0.53;0.53;;;14.20;99.90;;;;;;5011634;28;20505;-73
2023/04/24 14:48:11;;;;;;;1.23;0.63;;;14.00;99.90;;;;;;5011235;28;20472;-73
2023/04/24 14:50:39;;;;;;;0.30;0.30;;;13.90;99.90;;;;;;5011136;28;20517;-74
2023/04/24 14:53:05;;;;;;;0.40;0.40;;;13.70;99.90;;;;;;5010592;28;20503;-73
2023/04/24 14:55:33;;;;;;;0.43;0.40;;;13.50;99.90;;;;;;5011100;28;20857;-72
2023/04/24 14:58:00;;;;;;;0.40;0.40;;;13.40;99.90;;;;;;5011146;28;21001;-72
2023/04/24 15:00:27;;;;;;;0.30;0.30;;;13.30;99.90;;;;;;5011931;28;20545;-74
2023/04/24 15:02:54;;;;;;;0.30;0.30;;;13.20;99.90;;;;;;5011999;28;20468;-72
2023/04/24 15:05:22;;;;;;;0.33;0.33;;;13.10;99.90;;;;;;5010377;28;20540;-73
2023/04/24 15:07:50;;;;;;;0.50;0.50;;;13.10;99.90;;;;;;5010494;28;20985;-72
2023/04/24 15:10:17;;;;;;;0.40;0.40;;;13.00;99.90;;;;;;5010979;28;20469;-72
2023/04/24 15:12:44;;;;;;;0.50;0.50;;;12.90;99.90;;;;;;5010715;28;20473;-72
2023/04/24 15:15:11;;;;;;;0.40;0.40;;;12.80;99.90;;;;;;5010321;28;20556;-73
2023/04/24 15:17:37;;;;;;;0.77;0.67;;;12.70;99.90;;;;;;5010678;28;20473;-72
2023/04/24 15:20:06;;;;;;;0.40;0.40;;;12.60;99.90;;;;;;5010903;28;20473;-72
2023/04/24 15:22:33;;;;;;;0.57;0.57;;;12.60;99.90;;;;;;5010390;28;20466;-72
2023/04/24 15:25:02;;;;;;;0.30;0.30;;;12.60;99.90;;;;;;5010133;28;20474;-72
2023/04/24 15:27:39;;;;;;;0.33;0.33;;;12.40;99.90;;;;;;5010606;28;20476;-72
2023/04/24 15:30:08;;;;;;;0.40;0.30;;;12.30;99.90;;;;;;5010733;28;20469;-72
2023/04/24 15:32:34;;;;;;;0.57;0.57;;;12.30;99.90;;;;;;5010561;28;20458;-72
2023/04/24 15:35:01;;;;;;;0.60;0.60;;;12.20;99.90;;;;;;5010140;28;20485;-72
2023/04/24 15:37:28;;;;;;;0.35;0.35;;;12.20;99.90;;;;;;5010053;28;20466;-72
2023/04/24 15:39:55;;;;;;;0.63;0.63;;;12.10;99.90;;;;;;5010909;28;20233;-72
2023/04/24 15:42:23;;;;;;;0.60;0.47;;;12.10;99.90;;;;;;5010549;28;20469;-73
2023/04/24 15:44:49;;;;;;;0.50;0.50;;;12.00;99.90;;;;;;5010687;28;20215;-73
2023/04/24 15:47:16;;;;;;;0.22;0.22;;;11.90;99.90;;;;;;5011176;28;20231;-74
2023/04/24 15:49:43;;;;;;;0.97;0.97;;;11.90;99.90;;;;;;5013573;28;20203;-75
2023/04/24 15:52:10;;;;;;;0.32;0.32;;;11.80;99.90;;;;;;5015008;28;20565;-75
2023/04/24 15:54:38;;;;;;;0.40;0.40;;;11.80;99.90;;;;;;5014707;28;20238;-74
2023/04/24 15:57:04;;;;;;;0.47;0.47;;;11.70;99.90;;;;;;5014801;28;20512;-74
2023/04/24 15:59:33;;;;;;;0.20;0.20;;;11.50;99.90;;;;;;5014749;28;20222;-74
2023/04/24 16:01:59;;;;;;;0.40;0.40;;;11.20;99.90;;;;;;5017011;28;20218;-74
2023/04/24 16:04:26;;;;;;;0.65;0.65;;;10.90;99.90;;;;;;5016793;28;20209;-74
2023/04/24 16:06:53;;;;;;;0.22;0.22;;;10.70;99.90;;;;;;5025984;28;20250;-74
2023/04/24 16:09:20;;;;;;;0.95;0.85;;;10.50;99.90;;;;;;5020657;28;20567;-74
2023/04/24 16:11:47;;;;;;;1.23;0.50;;;10.40;99.90;;;;;;5021022;28;20249;-75
2023/04/24 16:14:13;;;;;;;2.25;1.23;;;10.30;99.90;;;;;;5016103;28;20251;-75
2023/04/24 16:16:41;;;;;;;1.33;1.33;;;10.30;99.90;;;;;;5027535;23;20232;-73
2023/04/24 16:19:08;;;;;;;1.65;1.60;;;10.20;99.90;;;;;;4995209;28;20209;-74
2023/04/24 16:21:35;;;;;;;0.80;0.80;;;10.10;99.90;;;;;;4994356;28;20248;-74
2023/04/24 16:24:02;;;;;;;1.35;1.25;;;10.10;99.90;;;;;;4994770;28;20208;-74
2023/04/24 16:26:28;;;;;;;0.65;0.60;;;10.00;99.90;;;;;;4994829;28;20238;-73
2023/04/24 16:28:55;;;;;;;0.80;0.80;;;9.90;99.90;;;;;;4998634;28;20393;-73
2023/04/24 16:31:22;;;;;;;2.63;2.53;;;9.90;99.90;;;;;;5005959;28;20559;-73
2023/04/24 16:33:50;;;;;;;2.17;1.42;;;9.80;99.90;;;;;;4994163;28;20224;-73
2023/04/24 16:36:17;;;;;;;0.30;0.30;;;9.90;99.90;;;;;;4993592;28;20280;-74
2023/04/24 16:38:43;;;;;;;1.65;0.45;;;9.80;99.90;;;;;;4994606;28;20204;-73
2023/04/24 16:41:10;;;;;;;1.20;0.98;;;9.70;99.90;;;;;;4993613;28;20203;-74
2023/04/24 16:43:37;;;;;;;0.47;0.47;;;9.70;99.90;;;;;;4993894;28;20252;-73
2023/04/24 16:46:04;;;;;;;0.75;0.75;;;9.70;99.90;;;;;;4994050;28;20232;-74
2023/04/24 16:48:33;;;;;;;0.60;0.60;;;9.60;99.90;;;;;;4994090;28;20262;-75
2023/04/24 16:51:01;;;;;;;4.68;1.48;;;9.60;99.90;;;;;;4993349;28;20625;-75